Aérodrome :
LOGIN :

S'inscrire | Disclaimer

   EN    FR    IT 

 










Légende :    VFR   VFR Marginal   IFR   IFR Intensif   IFR Très Intensif
Visi : 
Plafond : 
>= 8 km
>= 3000ft
5 à 8 km
1000 à 3000 ft
1500m à 5 km
500 à 1000 ft
800 à 1500m
200 à 500 ft
< 800m
< 200 ft
Symboles :   Orages  Brouillard  Fortes neiges  Fortes précipitations  Vent > 20 kt
SIGMETs :   Divers  Orages  Givrage  Turbulence  Onde Orograph.  Cendres Volcan.






- Altitude de l'aérodrome : 527 ft
- Code IATA : DBV


LDDU - Dubrovnik

DERNIER METAR :
  • 131030Z 14032G43KT 9999 -RA SCT014 BKN020 17/15 Q1001 RERA TEMPO 12030KT 2500 +TSRA FEW015TCU FEW017CB BKN020

METARs EXPIRÉS :
  • 131000Z 14032KT 3000 +RA FEW004 SCT016 BKN023 16/15 Q1000 TEMPO 12030G40KT 2500 +TSRA FEW015TCU FEW017CB BKN020
  • 130930Z 14034G45KT 9999 -RA FEW003 SCT016 BKN023 16/14 Q1001 RERA TEMPO 12030KT 2500 TSRA FEW015TCU FEW017CB BKN020
  • 130900Z 14031KT 5000 RA FEW013 SCT017 BKN023 16/14 Q1001 TEMPO 12030G40KT 3000 TSRA FEW015TCU FEW017CB BKN020
  • 130830Z 14029G39KT 9999 -RA SCT024 BKN032 16/14 Q1001 TEMPO 12028KT 4000 SHRA FEW017TCU BKN020
  • 130800Z 12030G40KT 9999 -RA FEW018 SCT025 BKN045 15/12 Q1000 RERA TEMPO 12028KT 4000 SHRA FEW017TCU BKN020

TAF AMD TAF LDDU
Valide du 13 à 09h jusqu'au 14 à 06h UTC


130934Z 1309/1406 12030G44KT 5000 -RA SCT010 BKN017 TX17/1312Z TN13/1405Z
TEMPO 1309/1312 12030KT
TEMPO 1309/1321 3000 SHRA BKN015 FEW017CB SCT020TCU
PROB40
TEMPO 1309/1320 2500 TSRA BKN010 SCT012CB
BECMG 1311/1313 13018KT
BECMG 1318/1320 09009KT



MET'MAP, la Météo Aéronautique d'un coup d'oeil ! - Copyright ORBIFLY Décembre 2007 - Disclaimer

ORBIFLY MET'MAP TEAM :

Programmation & Développement : Alexandra Zaïnal
Conception & Développement : Baudouin d'Aumeries
Co-Programmation & Développement : Marc-Olivier Méhu
Soutien technique & logistique : Manuel Goepfert

Contact : metmap@orbifly.com




SOURCES & CREDITS :

   NOAA